This is the latest recevied weather packets stored in our database for station/object KG7KID-3. If no packets are shown the sender has not sent any weather packets the latest 10 day(s).
| Time | Temp. | Humidity | Pressure | Rain* | Wind** | Luminosity | Snow |
|---|---|---|---|---|---|---|---|
| 1787440688 | 41.67° C | 18% | 887.3 hPa | 0 mm | - | - | - |
| 1787440541 | 41.67° C | 18% | 887.3 hPa | 0 mm | - | - | - |
| 1787440242 | 41.11° C | 18% | 887.3 hPa | 0 mm | - | - | - |
| 1787437342 | 39.44° C | 20% | 887.9 hPa | 0 mm | - | - | - |
| 1787437242 | 39.44° C | 20% | 887.9 hPa | 0 mm | - | - | - |
| 1787437088 | 39.44° C | 19% | 887.9 hPa | 0 mm | - | - | - |
| 1787436941 | 39.44° C | 19% | 887.9 hPa | 0 mm | - | - | - |
| 1787436750 | 39.44° C | 18% | 887.9 hPa | 0 mm | - | - | - |
| 1787436642 | 39.44° C | 18% | 887.9 hPa | 0 mm | - | - | - |
| 1787436488 | 39.44° C | 18% | 887.9 hPa | 0 mm | - | - | - |
| 1787436342 | 39.44° C | 18% | 887.9 hPa | 0 mm | - | - | - |
| 1787436155 | 40° C | 18% | 888 hPa | 0 mm | - | - | - |
| 1787436042 | 40° C | 18% | 888 hPa | 0 mm | - | - | - |
| 1787435875 | 40° C | 18% | 888 hPa | 0 mm | - | - | - |
| 1787435741 | 40° C | 18% | 888 hPa | 0 mm | - | - | - |
| 1787435442 | 40° C | 19% | 888 hPa | 0 mm | - | - | - |
| 1787434542 | 40° C | 19% | 888.2 hPa | 0 mm | - | - | - |
| 1787434241 | 40° C | 19% | 888.3 hPa | 0 mm | - | - | - |
| 1787418941 | 33.33° C | 33% | 891.5 hPa | 0 mm | - | - | - |
| 1787416815 | 32.78° C | 33% | 891.5 hPa | 0 mm | - | - | - |
| 1787416214 | 32.22° C | 35% | 891.5 hPa | 0 mm | - | - | - |
| 1787415315 | - | - | 891.5 hPa | 0 mm | - | - | - |
| 1787415015 | - | - | 891.5 hPa | 0 mm | - | - | - |
| 1787414517 | - | - | 891.4 hPa | 0 mm | - | - | - |
| 1787414415 | - | - | 891.4 hPa | 0 mm | - | - | - |
* Rain latest hour (hover to see other rain measurements)
** Current wind speed in m/s (hover to see current wind gust speed)